sensor_id;sensor_type;location;lat;lon;timestamp;P1;durP1;ratioP1;P2;durP2;ratioP2
2720;SDS011;1368;49.484;11.112;2024-02-23T00:01:31;1.60;;;0.60;;
2720;SDS011;1368;49.484;11.112;2024-02-23T00:03:57;1.40;;;0.60;;
2720;SDS011;1368;49.484;11.112;2024-02-23T00:06:22;1.80;;;0.80;;
2720;SDS011;1368;49.484;11.112;2024-02-23T00:08:52;1.33;;;0.63;;
2720;SDS011;1368;49.484;11.112;2024-02-23T00:11:19;1.40;;;0.50;;
2720;SDS011;1368;49.484;11.112;2024-02-23T00:13:45;1.43;;;0.50;;
2720;SDS011;1368;49.484;11.112;2024-02-23T00:16:11;4.20;;;0.80;;
2720;SDS011;1368;49.484;11.112;2024-02-23T00:18:36;1.90;;;0.63;;
2720;SDS011;1368;49.484;11.112;2024-02-23T00:21:02;2.53;;;0.60;;
2720;SDS011;1368;49.484;11.112;2024-02-23T00:23:28;1.50;;;0.60;;
2720;SDS011;1368;49.484;11.112;2024-02-23T00:25:54;1.63;;;0.80;;
2720;SDS011;1368;49.484;11.112;2024-02-23T00:28:19;3.00;;;0.67;;
2720;SDS011;1368;49.484;11.112;2024-02-23T00:30:45;1.50;;;0.60;;
2720;SDS011;1368;49.484;11.112;2024-02-23T00:33:10;1.70;;;0.60;;
2720;SDS011;1368;49.484;11.112;2024-02-23T00:35:36;1.40;;;0.50;;
2720;SDS011;1368;49.484;11.112;2024-02-23T00:38:01;1.57;;;0.57;;
2720;SDS011;1368;49.484;11.112;2024-02-23T00:40:27;2.17;;;0.60;;
2720;SDS011;1368;49.484;11.112;2024-02-23T00:42:53;1.27;;;0.43;;
2720;SDS011;1368;49.484;11.112;2024-02-23T00:45:18;1.40;;;0.57;;
2720;SDS011;1368;49.484;11.112;2024-02-23T00:47:44;1.30;;;0.50;;
2720;SDS011;1368;49.484;11.112;2024-02-23T00:50:11;1.50;;;0.60;;
2720;SDS011;1368;49.484;11.112;2024-02-23T00:52:37;3.13;;;0.57;;
2720;SDS011;1368;49.484;11.112;2024-02-23T00:55:03;1.20;;;0.40;;
2720;SDS011;1368;49.484;11.112;2024-02-23T00:57:29;1.90;;;0.53;;
2720;SDS011;1368;49.484;11.112;2024-02-23T00:59:58;4.47;;;0.50;;
2720;SDS011;1368;49.484;11.112;2024-02-23T01:02:23;2.03;;;0.80;;
2720;SDS011;1368;49.484;11.112;2024-02-23T01:04:49;1.13;;;0.50;;
2720;SDS011;1368;49.484;11.112;2024-02-23T01:07:14;1.10;;;0.40;;
2720;SDS011;1368;49.484;11.112;2024-02-23T01:09:40;1.17;;;0.40;;
2720;SDS011;1368;49.484;11.112;2024-02-23T01:12:06;3.80;;;0.50;;
2720;SDS011;1368;49.484;11.112;2024-02-23T01:14:31;1.17;;;0.43;;
2720;SDS011;1368;49.484;11.112;2024-02-23T01:16:57;1.30;;;0.50;;
2720;SDS011;1368;49.484;11.112;2024-02-23T01:19:22;1.40;;;0.50;;
2720;SDS011;1368;49.484;11.112;2024-02-23T01:21:48;1.93;;;0.60;;
2720;SDS011;1368;49.484;11.112;2024-02-23T01:24:20;1.33;;;0.50;;
2720;SDS011;1368;49.484;11.112;2024-02-23T01:26:46;1.73;;;0.50;;
2720;SDS011;1368;49.484;11.112;2024-02-23T01:29:11;2.27;;;0.77;;
2720;SDS011;1368;49.484;11.112;2024-02-23T01:31:37;3.83;;;0.80;;
2720;SDS011;1368;49.484;11.112;2024-02-23T01:34:03;3.87;;;0.87;;
2720;SDS011;1368;49.484;11.112;2024-02-23T01:36:28;2.00;;;0.70;;
2720;SDS011;1368;49.484;11.112;2024-02-23T01:38:54;1.40;;;0.50;;
2720;SDS011;1368;49.484;11.112;2024-02-23T01:41:20;1.57;;;0.60;;
2720;SDS011;1368;49.484;11.112;2024-02-23T01:43:45;1.97;;;0.57;;
2720;SDS011;1368;49.484;11.112;2024-02-23T01:46:11;2.70;;;0.60;;
2720;SDS011;1368;49.484;11.112;2024-02-23T01:48:36;4.70;;;0.70;;
2720;SDS011;1368;49.484;11.112;2024-02-23T01:51:02;3.73;;;0.70;;
2720;SDS011;1368;49.484;11.112;2024-02-23T01:53:28;3.47;;;0.60;;
2720;SDS011;1368;49.484;11.112;2024-02-23T01:55:55;2.57;;;0.50;;
2720;SDS011;1368;49.484;11.112;2024-02-23T01:58:22;2.47;;;1.00;;
2720;SDS011;1368;49.484;11.112;2024-02-23T02:00:48;1.20;;;0.50;;
2720;SDS011;1368;49.484;11.112;2024-02-23T02:03:14;1.87;;;0.60;;
2720;SDS011;1368;49.484;11.112;2024-02-23T02:05:39;2.33;;;0.90;;
2720;SDS011;1368;49.484;11.112;2024-02-23T02:08:05;2.23;;;0.60;;
2720;SDS011;1368;49.484;11.112;2024-02-23T02:10:31;1.40;;;0.60;;
2720;SDS011;1368;49.484;11.112;2024-02-23T02:13:01;3.77;;;0.90;;
2720;SDS011;1368;49.484;11.112;2024-02-23T02:15:30;2.17;;;0.87;;
2720;SDS011;1368;49.484;11.112;2024-02-23T02:17:56;2.53;;;0.67;;
2720;SDS011;1368;49.484;11.112;2024-02-23T02:20:23;3.57;;;0.70;;
2720;SDS011;1368;49.484;11.112;2024-02-23T02:22:53;2.07;;;0.80;;
2720;SDS011;1368;49.484;11.112;2024-02-23T02:25:18;1.80;;;0.70;;
2720;SDS011;1368;49.484;11.112;2024-02-23T02:27:44;2.40;;;0.60;;
2720;SDS011;1368;49.484;11.112;2024-02-23T02:30:10;2.10;;;0.73;;
2720;SDS011;1368;49.484;11.112;2024-02-23T02:32:37;1.87;;;0.67;;
2720;SDS011;1368;49.484;11.112;2024-02-23T02:35:02;2.53;;;0.90;;
2720;SDS011;1368;49.484;11.112;2024-02-23T02:37:28;2.43;;;0.80;;
2720;SDS011;1368;49.484;11.112;2024-02-23T02:39:54;2.60;;;0.90;;
2720;SDS011;1368;49.484;11.112;2024-02-23T02:42:19;1.90;;;0.97;;
2720;SDS011;1368;49.484;11.112;2024-02-23T02:44:45;2.37;;;0.90;;
2720;SDS011;1368;49.484;11.112;2024-02-23T02:47:11;1.93;;;0.70;;
2720;SDS011;1368;49.484;11.112;2024-02-23T02:49:36;3.10;;;1.33;;
2720;SDS011;1368;49.484;11.112;2024-02-23T02:52:02;3.30;;;1.20;;
2720;SDS011;1368;49.484;11.112;2024-02-23T02:54:27;3.93;;;0.90;;
2720;SDS011;1368;49.484;11.112;2024-02-23T02:56:53;3.30;;;0.90;;
2720;SDS011;1368;49.484;11.112;2024-02-23T02:59:19;3.67;;;0.70;;
2720;SDS011;1368;49.484;11.112;2024-02-23T03:01:45;3.63;;;0.70;;
2720;SDS011;1368;49.484;11.112;2024-02-23T03:04:12;2.37;;;0.90;;
2720;SDS011;1368;49.484;11.112;2024-02-23T03:06:37;3.10;;;0.70;;
2720;SDS011;1368;49.484;11.112;2024-02-23T03:09:03;3.20;;;0.80;;
2720;SDS011;1368;49.484;11.112;2024-02-23T03:11:29;2.70;;;1.00;;
2720;SDS011;1368;49.484;11.112;2024-02-23T03:13:55;2.43;;;0.80;;
2720;SDS011;1368;49.484;11.112;2024-02-23T03:16:21;2.10;;;1.00;;
2720;SDS011;1368;49.484;11.112;2024-02-23T03:18:48;7.43;;;1.20;;
2720;SDS011;1368;49.484;11.112;2024-02-23T03:21:14;3.60;;;0.90;;
2720;SDS011;1368;49.484;11.112;2024-02-23T03:23:40;6.43;;;2.00;;
2720;SDS011;1368;49.484;11.112;2024-02-23T03:26:06;8.03;;;1.40;;
2720;SDS011;1368;49.484;11.112;2024-02-23T03:28:32;3.73;;;1.00;;
2720;SDS011;1368;49.484;11.112;2024-02-23T03:30:58;5.13;;;1.10;;
2720;SDS011;1368;49.484;11.112;2024-02-23T03:33:25;1.67;;;0.80;;
2720;SDS011;1368;49.484;11.112;2024-02-23T03:35:50;5.20;;;0.90;;
2720;SDS011;1368;49.484;11.112;2024-02-23T03:38:16;3.10;;;1.17;;
2720;SDS011;1368;49.484;11.112;2024-02-23T03:40:41;8.63;;;1.67;;
2720;SDS011;1368;49.484;11.112;2024-02-23T03:43:07;3.23;;;1.20;;
2720;SDS011;1368;49.484;11.112;2024-02-23T03:45:33;2.37;;;1.00;;
2720;SDS011;1368;49.484;11.112;2024-02-23T03:47:58;5.00;;;1.30;;
2720;SDS011;1368;49.484;11.112;2024-02-23T03:50:24;4.97;;;1.30;;
2720;SDS011;1368;49.484;11.112;2024-02-23T03:52:50;2.50;;;1.00;;
2720;SDS011;1368;49.484;11.112;2024-02-23T03:55:15;4.87;;;1.20;;
2720;SDS011;1368;49.484;11.112;2024-02-23T03:57:41;2.57;;;1.23;;
2720;SDS011;1368;49.484;11.112;2024-02-23T04:00:06;6.10;;;1.30;;
2720;SDS011;1368;49.484;11.112;2024-02-23T04:02:33;3.10;;;1.20;;
2720;SDS011;1368;49.484;11.112;2024-02-23T04:04:59;3.80;;;1.30;;
2720;SDS011;1368;49.484;11.112;2024-02-23T04:07:25;3.00;;;1.50;;
2720;SDS011;1368;49.484;11.112;2024-02-23T04:09:51;4.90;;;1.40;;
2720;SDS011;1368;49.484;11.112;2024-02-23T04:12:20;3.83;;;0.90;;
2720;SDS011;1368;49.484;11.112;2024-02-23T04:14:46;9.37;;;1.70;;
2720;SDS011;1368;49.484;11.112;2024-02-23T04:17:12;2.43;;;1.13;;
2720;SDS011;1368;49.484;11.112;2024-02-23T04:19:37;5.13;;;1.40;;
2720;SDS011;1368;49.484;11.112;2024-02-23T04:22:04;3.40;;;1.23;;
2720;SDS011;1368;49.484;11.112;2024-02-23T04:24:33;4.13;;;1.70;;
2720;SDS011;1368;49.484;11.112;2024-02-23T04:26:59;5.47;;;1.10;;
2720;SDS011;1368;49.484;11.112;2024-02-23T04:29:25;1.83;;;0.90;;
2720;SDS011;1368;49.484;11.112;2024-02-23T04:31:50;5.10;;;1.13;;
2720;SDS011;1368;49.484;11.112;2024-02-23T04:34:16;4.27;;;1.10;;
2720;SDS011;1368;49.484;11.112;2024-02-23T04:36:41;3.00;;;1.50;;
2720;SDS011;1368;49.484;11.112;2024-02-23T04:39:07;4.60;;;1.57;;
2720;SDS011;1368;49.484;11.112;2024-02-23T04:41:33;4.83;;;1.40;;
2720;SDS011;1368;49.484;11.112;2024-02-23T04:43:58;5.13;;;1.50;;
2720;SDS011;1368;49.484;11.112;2024-02-23T04:46:26;6.83;;;1.80;;
2720;SDS011;1368;49.484;11.112;2024-02-23T04:48:51;9.57;;;1.90;;
2720;SDS011;1368;49.484;11.112;2024-02-23T04:51:17;6.27;;;2.00;;
2720;SDS011;1368;49.484;11.112;2024-02-23T04:53:42;3.90;;;1.30;;
2720;SDS011;1368;49.484;11.112;2024-02-23T04:56:08;6.20;;;1.27;;
2720;SDS011;1368;49.484;11.112;2024-02-23T04:58:33;5.37;;;1.50;;
2720;SDS011;1368;49.484;11.112;2024-02-23T05:00:59;2.83;;;1.10;;
2720;SDS011;1368;49.484;11.112;2024-02-23T05:03:25;4.40;;;1.50;;
2720;SDS011;1368;49.484;11.112;2024-02-23T05:05:51;5.80;;;1.53;;
2720;SDS011;1368;49.484;11.112;2024-02-23T05:08:21;6.13;;;1.37;;
2720;SDS011;1368;49.484;11.112;2024-02-23T05:10:49;3.50;;;1.00;;
2720;SDS011;1368;49.484;11.112;2024-02-23T05:13:17;7.90;;;1.40;;
2720;SDS011;1368;49.484;11.112;2024-02-23T05:15:43;11.80;;;1.80;;
2720;SDS011;1368;49.484;11.112;2024-02-23T05:18:08;5.83;;;1.90;;
2720;SDS011;1368;49.484;11.112;2024-02-23T05:20:34;7.73;;;1.50;;
2720;SDS011;1368;49.484;11.112;2024-02-23T05:22:59;8.27;;;3.10;;
2720;SDS011;1368;49.484;11.112;2024-02-23T05:25:25;5.60;;;1.10;;
2720;SDS011;1368;49.484;11.112;2024-02-23T05:27:52;3.00;;;1.50;;
2720;SDS011;1368;49.484;11.112;2024-02-23T05:30:17;5.63;;;2.10;;
2720;SDS011;1368;49.484;11.112;2024-02-23T05:32:43;7.50;;;2.03;;
2720;SDS011;1368;49.484;11.112;2024-02-23T05:35:08;5.60;;;1.90;;
2720;SDS011;1368;49.484;11.112;2024-02-23T05:37:35;7.83;;;1.60;;
2720;SDS011;1368;49.484;11.112;2024-02-23T05:40:00;4.37;;;1.37;;
2720;SDS011;1368;49.484;11.112;2024-02-23T05:42:29;4.40;;;1.40;;
2720;SDS011;1368;49.484;11.112;2024-02-23T05:44:54;5.90;;;1.43;;
2720;SDS011;1368;49.484;11.112;2024-02-23T05:47:20;8.33;;;1.53;;
2720;SDS011;1368;49.484;11.112;2024-02-23T05:49:46;3.77;;;1.53;;
2720;SDS011;1368;49.484;11.112;2024-02-23T05:52:12;4.50;;;1.50;;
2720;SDS011;1368;49.484;11.112;2024-02-23T05:54:38;5.13;;;1.83;;
2720;SDS011;1368;49.484;11.112;2024-02-23T05:57:03;4.30;;;1.90;;
2720;SDS011;1368;49.484;11.112;2024-02-23T05:59:29;4.57;;;1.60;;
2720;SDS011;1368;49.484;11.112;2024-02-23T06:01:55;7.40;;;1.40;;
2720;SDS011;1368;49.484;11.112;2024-02-23T06:04:24;7.67;;;2.07;;
2720;SDS011;1368;49.484;11.112;2024-02-23T06:06:50;5.63;;;2.00;;
2720;SDS011;1368;49.484;11.112;2024-02-23T06:09:15;4.93;;;1.93;;
2720;SDS011;1368;49.484;11.112;2024-02-23T06:11:41;5.10;;;1.37;;
2720;SDS011;1368;49.484;11.112;2024-02-23T06:14:07;6.53;;;1.97;;
2720;SDS011;1368;49.484;11.112;2024-02-23T06:16:33;3.60;;;1.73;;
2720;SDS011;1368;49.484;11.112;2024-02-23T06:18:58;3.37;;;1.77;;
2720;SDS011;1368;49.484;11.112;2024-02-23T06:21:24;4.53;;;1.43;;
2720;SDS011;1368;49.484;11.112;2024-02-23T06:23:50;6.93;;;1.80;;
2720;SDS011;1368;49.484;11.112;2024-02-23T06:26:15;5.23;;;1.83;;
2720;SDS011;1368;49.484;11.112;2024-02-23T06:28:41;4.70;;;1.30;;
2720;SDS011;1368;49.484;11.112;2024-02-23T06:31:07;6.73;;;1.70;;
2720;SDS011;1368;49.484;11.112;2024-02-23T06:33:33;3.13;;;1.67;;
2720;SDS011;1368;49.484;11.112;2024-02-23T06:35:59;9.93;;;2.30;;
2720;SDS011;1368;49.484;11.112;2024-02-23T06:38:25;4.30;;;1.53;;
2720;SDS011;1368;49.484;11.112;2024-02-23T06:40:51;7.00;;;1.63;;
2720;SDS011;1368;49.484;11.112;2024-02-23T06:43:17;4.30;;;1.50;;
2720;SDS011;1368;49.484;11.112;2024-02-23T06:45:43;3.30;;;1.50;;
2720;SDS011;1368;49.484;11.112;2024-02-23T06:48:09;2.97;;;1.00;;
2720;SDS011;1368;49.484;11.112;2024-02-23T06:50:35;4.17;;;1.40;;
2720;SDS011;1368;49.484;11.112;2024-02-23T06:53:00;14.70;;;1.83;;
2720;SDS011;1368;49.484;11.112;2024-02-23T06:55:27;2.57;;;1.10;;
2720;SDS011;1368;49.484;11.112;2024-02-23T06:57:53;5.97;;;1.63;;
2720;SDS011;1368;49.484;11.112;2024-02-23T07:00:20;3.97;;;1.27;;
2720;SDS011;1368;49.484;11.112;2024-02-23T07:02:46;6.27;;;1.67;;
2720;SDS011;1368;49.484;11.112;2024-02-23T07:05:12;14.70;;;4.00;;
2720;SDS011;1368;49.484;11.112;2024-02-23T07:07:38;8.90;;;2.20;;
2720;SDS011;1368;49.484;11.112;2024-02-23T07:10:05;4.10;;;2.23;;
2720;SDS011;1368;49.484;11.112;2024-02-23T07:12:31;7.17;;;2.07;;
2720;SDS011;1368;49.484;11.112;2024-02-23T07:14:57;6.50;;;2.23;;
2720;SDS011;1368;49.484;11.112;2024-02-23T07:17:22;6.87;;;1.90;;
2720;SDS011;1368;49.484;11.112;2024-02-23T07:19:48;5.37;;;2.10;;
2720;SDS011;1368;49.484;11.112;2024-02-23T07:22:15;5.63;;;2.53;;
2720;SDS011;1368;49.484;11.112;2024-02-23T07:24:43;2.93;;;2.03;;
2720;SDS011;1368;49.484;11.112;2024-02-23T07:27:08;3.03;;;1.80;;
2720;SDS011;1368;49.484;11.112;2024-02-23T07:29:34;5.60;;;1.90;;
2720;SDS011;1368;49.484;11.112;2024-02-23T07:32:00;7.10;;;1.80;;
2720;SDS011;1368;49.484;11.112;2024-02-23T07:34:26;7.23;;;1.87;;
2720;SDS011;1368;49.484;11.112;2024-02-23T07:36:52;7.73;;;2.40;;
2720;SDS011;1368;49.484;11.112;2024-02-23T07:39:18;5.33;;;1.60;;
2720;SDS011;1368;49.484;11.112;2024-02-23T07:41:44;5.90;;;1.37;;
2720;SDS011;1368;49.484;11.112;2024-02-23T07:44:09;6.87;;;2.23;;
2720;SDS011;1368;49.484;11.112;2024-02-23T07:46:35;8.67;;;1.73;;
2720;SDS011;1368;49.484;11.112;2024-02-23T07:49:01;5.33;;;1.80;;
2720;SDS011;1368;49.484;11.112;2024-02-23T07:51:27;5.27;;;1.70;;
2720;SDS011;1368;49.484;11.112;2024-02-23T07:53:53;6.23;;;1.60;;
2720;SDS011;1368;49.484;11.112;2024-02-23T07:56:20;8.47;;;1.53;;
2720;SDS011;1368;49.484;11.112;2024-02-23T07:58:45;6.50;;;1.70;;
2720;SDS011;1368;49.484;11.112;2024-02-23T08:01:11;5.10;;;1.80;;
2720;SDS011;1368;49.484;11.112;2024-02-23T08:03:39;6.10;;;1.60;;
2720;SDS011;1368;49.484;11.112;2024-02-23T08:06:05;3.63;;;1.57;;
2720;SDS011;1368;49.484;11.112;2024-02-23T08:08:31;6.57;;;1.80;;
2720;SDS011;1368;49.484;11.112;2024-02-23T08:10:59;5.50;;;1.90;;
2720;SDS011;1368;49.484;11.112;2024-02-23T08:13:26;6.53;;;1.30;;
2720;SDS011;1368;49.484;11.112;2024-02-23T08:15:52;8.93;;;1.90;;
2720;SDS011;1368;49.484;11.112;2024-02-23T08:18:17;4.37;;;1.27;;
2720;SDS011;1368;49.484;11.112;2024-02-23T08:20:43;3.23;;;1.23;;
2720;SDS011;1368;49.484;11.112;2024-02-23T08:23:08;6.97;;;2.33;;
2720;SDS011;1368;49.484;11.112;2024-02-23T08:25:34;7.17;;;2.70;;
2720;SDS011;1368;49.484;11.112;2024-02-23T08:28:00;4.00;;;1.47;;
2720;SDS011;1368;49.484;11.112;2024-02-23T08:30:26;4.70;;;1.40;;
2720;SDS011;1368;49.484;11.112;2024-02-23T08:32:52;2.43;;;1.20;;
2720;SDS011;1368;49.484;11.112;2024-02-23T08:35:17;5.77;;;1.53;;
2720;SDS011;1368;49.484;11.112;2024-02-23T08:37:43;4.37;;;1.60;;
2720;SDS011;1368;49.484;11.112;2024-02-23T08:40:09;3.90;;;1.50;;
2720;SDS011;1368;49.484;11.112;2024-02-23T08:42:35;2.53;;;1.10;;
2720;SDS011;1368;49.484;11.112;2024-02-23T08:45:00;4.13;;;1.90;;
2720;SDS011;1368;49.484;11.112;2024-02-23T08:47:27;5.27;;;1.60;;
2720;SDS011;1368;49.484;11.112;2024-02-23T08:49:57;5.27;;;1.53;;
2720;SDS011;1368;49.484;11.112;2024-02-23T08:52:22;5.77;;;1.43;;
2720;SDS011;1368;49.484;11.112;2024-02-23T08:54:48;3.33;;;1.30;;
2720;SDS011;1368;49.484;11.112;2024-02-23T08:57:14;4.40;;;1.53;;
2720;SDS011;1368;49.484;11.112;2024-02-23T08:59:44;6.43;;;1.83;;
2720;SDS011;1368;49.484;11.112;2024-02-23T09:02:10;5.83;;;2.10;;
2720;SDS011;1368;49.484;11.112;2024-02-23T09:04:35;5.00;;;1.40;;
2720;SDS011;1368;49.484;11.112;2024-02-23T09:07:01;2.07;;;1.17;;
2720;SDS011;1368;49.484;11.112;2024-02-23T09:09:27;5.60;;;1.40;;
2720;SDS011;1368;49.484;11.112;2024-02-23T09:11:52;3.80;;;1.20;;
2720;SDS011;1368;49.484;11.112;2024-02-23T09:14:18;3.00;;;1.30;;
2720;SDS011;1368;49.484;11.112;2024-02-23T09:16:43;6.40;;;1.80;;
2720;SDS011;1368;49.484;11.112;2024-02-23T09:19:11;4.73;;;1.40;;
2720;SDS011;1368;49.484;11.112;2024-02-23T09:21:37;4.40;;;1.60;;
2720;SDS011;1368;49.484;11.112;2024-02-23T09:24:02;6.27;;;1.47;;
2720;SDS011;1368;49.484;11.112;2024-02-23T09:26:28;5.13;;;1.50;;
2720;SDS011;1368;49.484;11.112;2024-02-23T09:28:54;2.67;;;1.27;;
2720;SDS011;1368;49.484;11.112;2024-02-23T09:31:20;3.40;;;1.43;;
2720;SDS011;1368;49.484;11.112;2024-02-23T09:33:45;3.90;;;1.70;;
2720;SDS011;1368;49.484;11.112;2024-02-23T09:36:11;3.77;;;1.60;;
2720;SDS011;1368;49.484;11.112;2024-02-23T09:38:37;4.83;;;1.70;;
2720;SDS011;1368;49.484;11.112;2024-02-23T09:41:03;5.07;;;1.60;;
2720;SDS011;1368;49.484;11.112;2024-02-23T09:43:29;3.53;;;1.20;;
2720;SDS011;1368;49.484;11.112;2024-02-23T09:45:58;3.93;;;1.30;;
2720;SDS011;1368;49.484;11.112;2024-02-23T09:48:24;7.43;;;1.40;;
2720;SDS011;1368;49.484;11.112;2024-02-23T09:50:51;5.60;;;1.10;;
2720;SDS011;1368;49.484;11.112;2024-02-23T09:53:17;4.97;;;1.80;;
2720;SDS011;1368;49.484;11.112;2024-02-23T09:55:45;4.43;;;1.77;;
2720;SDS011;1368;49.484;11.112;2024-02-23T09:58:13;4.10;;;1.40;;
2720;SDS011;1368;49.484;11.112;2024-02-23T10:00:42;2.97;;;1.13;;
2720;SDS011;1368;49.484;11.112;2024-02-23T10:03:08;3.10;;;1.10;;
2720;SDS011;1368;49.484;11.112;2024-02-23T10:05:34;3.33;;;0.90;;
2720;SDS011;1368;49.484;11.112;2024-02-23T10:07:59;4.63;;;1.27;;
2720;SDS011;1368;49.484;11.112;2024-02-23T10:10:34;5.73;;;1.10;;
2720;SDS011;1368;49.484;11.112;2024-02-23T10:13:00;6.40;;;1.57;;
2720;SDS011;1368;49.484;11.112;2024-02-23T10:15:28;6.83;;;1.43;;
2720;SDS011;1368;49.484;11.112;2024-02-23T10:17:55;3.93;;;1.43;;
2720;SDS011;1368;49.484;11.112;2024-02-23T10:20:20;7.33;;;1.60;;
2720;SDS011;1368;49.484;11.112;2024-02-23T10:22:46;6.63;;;2.63;;
2720;SDS011;1368;49.484;11.112;2024-02-23T10:25:12;6.13;;;1.67;;
2720;SDS011;1368;49.484;11.112;2024-02-23T10:27:37;6.30;;;1.20;;
2720;SDS011;1368;49.484;11.112;2024-02-23T10:30:05;4.63;;;1.90;;
2720;SDS011;1368;49.484;11.112;2024-02-23T10:32:31;9.63;;;2.70;;
2720;SDS011;1368;49.484;11.112;2024-02-23T10:34:59;7.50;;;2.70;;
2720;SDS011;1368;49.484;11.112;2024-02-23T10:37:29;10.90;;;2.40;;
2720;SDS011;1368;49.484;11.112;2024-02-23T10:39:56;12.77;;;2.87;;
2720;SDS011;1368;49.484;11.112;2024-02-23T10:42:24;7.30;;;1.60;;
2720;SDS011;1368;49.484;11.112;2024-02-23T10:44:56;3.00;;;1.30;;
2720;SDS011;1368;49.484;11.112;2024-02-23T10:47:26;5.47;;;1.80;;
2720;SDS011;1368;49.484;11.112;2024-02-23T10:49:52;5.13;;;1.93;;
2720;SDS011;1368;49.484;11.112;2024-02-23T10:52:20;4.83;;;2.13;;
2720;SDS011;1368;49.484;11.112;2024-02-23T10:54:49;5.37;;;1.67;;
2720;SDS011;1368;49.484;11.112;2024-02-23T10:57:16;5.33;;;1.70;;
2720;SDS011;1368;49.484;11.112;2024-02-23T10:59:44;3.93;;;1.43;;
2720;SDS011;1368;49.484;11.112;2024-02-23T11:02:17;6.87;;;2.10;;
2720;SDS011;1368;49.484;11.112;2024-02-23T11:04:48;3.93;;;1.43;;
2720;SDS011;1368;49.484;11.112;2024-02-23T11:07:15;4.10;;;1.30;;
2720;SDS011;1368;49.484;11.112;2024-02-23T11:09:48;6.13;;;1.37;;
2720;SDS011;1368;49.484;11.112;2024-02-23T11:12:24;3.30;;;1.13;;
2720;SDS011;1368;49.484;11.112;2024-02-23T11:14:50;5.37;;;1.50;;
2720;SDS011;1368;49.484;11.112;2024-02-23T11:17:19;6.50;;;1.30;;
2720;SDS011;1368;49.484;11.112;2024-02-23T11:19:46;3.67;;;1.53;;
2720;SDS011;1368;49.484;11.112;2024-02-23T11:22:14;3.00;;;1.13;;
2720;SDS011;1368;49.484;11.112;2024-02-23T11:24:43;5.20;;;1.53;;
2720;SDS011;1368;49.484;11.112;2024-02-23T11:27:13;5.97;;;1.73;;
2720;SDS011;1368;49.484;11.112;2024-02-23T11:29:42;8.47;;;1.70;;
2720;SDS011;1368;49.484;11.112;2024-02-23T11:32:15;2.93;;;1.23;;
2720;SDS011;1368;49.484;11.112;2024-02-23T11:34:41;4.13;;;1.50;;
2720;SDS011;1368;49.484;11.112;2024-02-23T11:37:07;3.30;;;1.80;;
2720;SDS011;1368;49.484;11.112;2024-02-23T11:39:35;4.63;;;1.40;;
2720;SDS011;1368;49.484;11.112;2024-02-23T11:42:03;5.77;;;1.90;;
2720;SDS011;1368;49.484;11.112;2024-02-23T11:44:29;4.43;;;1.20;;
2720;SDS011;1368;49.484;11.112;2024-02-23T11:46:55;3.90;;;0.90;;
2720;SDS011;1368;49.484;11.112;2024-02-23T11:49:20;3.37;;;1.40;;
2720;SDS011;1368;49.484;11.112;2024-02-23T11:51:55;5.47;;;2.17;;
2720;SDS011;1368;49.484;11.112;2024-02-23T11:54:21;4.13;;;1.40;;
2720;SDS011;1368;49.484;11.112;2024-02-23T11:56:48;4.57;;;2.30;;
2720;SDS011;1368;49.484;11.112;2024-02-23T11:59:14;4.40;;;2.50;;
2720;SDS011;1368;49.484;11.112;2024-02-23T12:01:40;7.33;;;1.73;;
2720;SDS011;1368;49.484;11.112;2024-02-23T12:04:06;2.53;;;1.20;;
2720;SDS011;1368;49.484;11.112;2024-02-23T12:06:33;2.97;;;1.10;;
2720;SDS011;1368;49.484;11.112;2024-02-23T12:08:59;3.43;;;1.47;;
2720;SDS011;1368;49.484;11.112;2024-02-23T12:11:25;6.17;;;1.70;;
2720;SDS011;1368;49.484;11.112;2024-02-23T12:13:52;4.10;;;1.90;;
2720;SDS011;1368;49.484;11.112;2024-02-23T12:16:18;2.70;;;1.10;;
2720;SDS011;1368;49.484;11.112;2024-02-23T12:18:46;3.50;;;1.30;;
2720;SDS011;1368;49.484;11.112;2024-02-23T12:21:19;3.27;;;1.53;;
2720;SDS011;1368;49.484;11.112;2024-02-23T12:23:45;6.50;;;1.93;;
2720;SDS011;1368;49.484;11.112;2024-02-23T12:26:14;7.87;;;1.60;;
2720;SDS011;1368;49.484;11.112;2024-02-23T12:28:43;4.33;;;1.40;;
2720;SDS011;1368;49.484;11.112;2024-02-23T12:31:09;2.50;;;1.10;;
2720;SDS011;1368;49.484;11.112;2024-02-23T12:33:35;3.90;;;1.40;;
2720;SDS011;1368;49.484;11.112;2024-02-23T12:36:03;4.83;;;1.90;;
2720;SDS011;1368;49.484;11.112;2024-02-23T12:38:29;7.10;;;1.50;;
2720;SDS011;1368;49.484;11.112;2024-02-23T12:40:55;3.80;;;1.20;;
2720;SDS011;1368;49.484;11.112;2024-02-23T12:43:22;5.30;;;1.50;;
2720;SDS011;1368;49.484;11.112;2024-02-23T12:45:52;3.40;;;1.20;;
2720;SDS011;1368;49.484;11.112;2024-02-23T12:48:19;2.73;;;1.30;;
2720;SDS011;1368;49.484;11.112;2024-02-23T12:50:45;3.50;;;1.07;;
2720;SDS011;1368;49.484;11.112;2024-02-23T12:55:58;2.93;;;1.30;;
2720;SDS011;1368;49.484;11.112;2024-02-23T12:58:24;4.77;;;2.27;;
2720;SDS011;1368;49.484;11.112;2024-02-23T13:00:50;5.27;;;2.63;;
2720;SDS011;1368;49.484;11.112;2024-02-23T13:03:16;11.10;;;3.07;;
2720;SDS011;1368;49.484;11.112;2024-02-23T13:05:42;3.77;;;1.33;;
2720;SDS011;1368;49.484;11.112;2024-02-23T13:08:07;4.20;;;2.30;;
2720;SDS011;1368;49.484;11.112;2024-02-23T13:10:33;5.00;;;2.20;;
2720;SDS011;1368;49.484;11.112;2024-02-23T13:13:00;5.40;;;2.03;;
2720;SDS011;1368;49.484;11.112;2024-02-23T13:15:25;4.97;;;1.43;;
2720;SDS011;1368;49.484;11.112;2024-02-23T13:17:51;3.60;;;1.50;;
2720;SDS011;1368;49.484;11.112;2024-02-23T13:20:16;4.70;;;1.63;;
2720;SDS011;1368;49.484;11.112;2024-02-23T13:22:42;2.43;;;1.03;;
2720;SDS011;1368;49.484;11.112;2024-02-23T13:25:07;3.70;;;1.43;;
2720;SDS011;1368;49.484;11.112;2024-02-23T13:27:33;4.27;;;1.27;;
2720;SDS011;1368;49.484;11.112;2024-02-23T13:29:59;4.80;;;1.47;;
2720;SDS011;1368;49.484;11.112;2024-02-23T13:32:24;5.67;;;1.40;;
2720;SDS011;1368;49.484;11.112;2024-02-23T13:34:50;4.83;;;1.63;;
2720;SDS011;1368;49.484;11.112;2024-02-23T13:37:17;3.27;;;1.30;;
2720;SDS011;1368;49.484;11.112;2024-02-23T13:39:43;3.00;;;1.50;;
2720;SDS011;1368;49.484;11.112;2024-02-23T13:42:08;2.40;;;1.30;;
2720;SDS011;1368;49.484;11.112;2024-02-23T13:44:35;6.57;;;1.20;;
2720;SDS011;1368;49.484;11.112;2024-02-23T13:47:01;4.00;;;0.97;;
2720;SDS011;1368;49.484;11.112;2024-02-23T13:49:27;2.57;;;1.13;;
2720;SDS011;1368;49.484;11.112;2024-02-23T13:51:53;4.33;;;1.60;;
2720;SDS011;1368;49.484;11.112;2024-02-23T13:54:20;2.97;;;1.60;;
2720;SDS011;1368;49.484;11.112;2024-02-23T13:56:45;4.27;;;1.43;;
2720;SDS011;1368;49.484;11.112;2024-02-23T13:59:12;4.87;;;1.40;;
2720;SDS011;1368;49.484;11.112;2024-02-23T14:01:37;5.37;;;1.40;;
2720;SDS011;1368;49.484;11.112;2024-02-23T14:04:06;2.97;;;1.47;;
2720;SDS011;1368;49.484;11.112;2024-02-23T14:06:35;4.13;;;1.33;;
2720;SDS011;1368;49.484;11.112;2024-02-23T14:09:01;5.33;;;1.70;;
2720;SDS011;1368;49.484;11.112;2024-02-23T14:11:28;5.87;;;1.53;;
2720;SDS011;1368;49.484;11.112;2024-02-23T14:13:54;3.70;;;1.17;;
2720;SDS011;1368;49.484;11.112;2024-02-23T14:16:21;3.53;;;1.40;;
2720;SDS011;1368;49.484;11.112;2024-02-23T14:18:46;2.70;;;1.03;;
2720;SDS011;1368;49.484;11.112;2024-02-23T14:21:12;3.63;;;1.53;;
2720;SDS011;1368;49.484;11.112;2024-02-23T14:23:39;2.43;;;1.20;;
2720;SDS011;1368;49.484;11.112;2024-02-23T14:26:04;2.63;;;1.23;;
2720;SDS011;1368;49.484;11.112;2024-02-23T14:28:30;3.97;;;1.53;;
2720;SDS011;1368;49.484;11.112;2024-02-23T14:30:56;4.23;;;1.40;;
2720;SDS011;1368;49.484;11.112;2024-02-23T14:33:21;4.77;;;2.13;;
2720;SDS011;1368;49.484;11.112;2024-02-23T14:35:47;9.67;;;1.73;;
2720;SDS011;1368;49.484;11.112;2024-02-23T14:38:14;7.70;;;1.70;;
2720;SDS011;1368;49.484;11.112;2024-02-23T14:40:41;2.93;;;1.50;;
2720;SDS011;1368;49.484;11.112;2024-02-23T14:43:06;2.93;;;1.43;;
2720;SDS011;1368;49.484;11.112;2024-02-23T14:45:32;2.90;;;1.37;;
2720;SDS011;1368;49.484;11.112;2024-02-23T14:47:58;5.30;;;1.30;;
2720;SDS011;1368;49.484;11.112;2024-02-23T14:50:24;2.50;;;1.53;;
2720;SDS011;1368;49.484;11.112;2024-02-23T14:52:49;4.60;;;1.90;;
2720;SDS011;1368;49.484;11.112;2024-02-23T14:55:15;2.50;;;1.20;;
2720;SDS011;1368;49.484;11.112;2024-02-23T14:57:41;4.80;;;1.60;;